Time;durP1;ratioP1;P1;durP2;ratioP2;P2;SDS_P1;SDS_P2;PMS_P1;PMS_P2;Temp;Humidity;BMP_temperature;BMP_pressure;BME280_temperature;BME280_humidity;BME280_pressure;Samples;Min_cycle;Max_cycle;Signal;HPM_P1;HPM_P2
2020/12/19 00:02:26;;;;;;;71.53;48.77;;;;;;;3.72;100.00;95274.94;4974441;28;20449;-83
2020/12/19 00:04:52;;;;;;;82.87;49.53;;;;;;;4.07;100.00;95287.84;4975412;28;20478;-83
2020/12/19 00:07:20;;;;;;;72.40;45.43;;;;;;;4.15;100.00;95270.25;4974345;28;20446;-83
2020/12/19 00:09:46;;;;;;;70.40;45.70;;;;;;;4.09;100.00;95253.66;4974224;28;20441;-83
2020/12/19 00:12:13;;;;;;;72.83;46.17;;;;;;;4.35;100.00;95265.44;4974223;28;20429;-83
2020/12/19 00:14:39;;;;;;;93.43;55.97;;;;;;;4.42;100.00;95260.69;4974472;28;20449;-83
2020/12/19 00:17:05;;;;;;;88.13;55.47;;;;;;;4.42;100.00;95266.59;4974298;28;21006;-83
2020/12/19 00:19:32;;;;;;;82.53;50.43;;;;;;;4.43;100.00;95259.78;4974045;28;20442;-83
2020/12/19 00:21:58;;;;;;;69.90;49.13;;;;;;;4.48;100.00;95262.78;4974200;28;20783;-83
2020/12/19 00:24:26;;;;;;;97.73;53.07;;;;;;;4.44;100.00;95262.22;4974322;28;20456;-83
2020/12/19 00:26:52;;;;;;;79.50;49.10;;;;;;;4.39;100.00;95255.84;4973972;28;20425;-83
2020/12/19 00:29:18;;;;;;;82.30;48.70;;;;;;;4.54;100.00;95262.34;4974354;28;20440;-83
2020/12/19 00:31:45;;;;;;;77.33;46.70;;;;;;;4.31;100.00;95223.22;4974238;28;20944;-83
2020/12/19 00:34:11;;;;;;;67.77;46.40;;;;;;;4.64;100.00;95271.84;4974165;28;20503;-83
2020/12/19 00:36:38;;;;;;;74.93;46.37;;;;;;;4.42;100.00;95281.91;4973694;28;20788;-83
2020/12/19 00:39:06;;;;;;;74.83;47.93;;;;;;;4.41;100.00;95285.41;4973726;28;20430;-83
2020/12/19 00:41:33;;;;;;;79.70;47.10;;;;;;;4.42;100.00;95287.00;4973770;28;20452;-83
2020/12/19 00:44:00;;;;;;;94.73;48.67;;;;;;;3.85;100.00;95225.66;4973741;28;20511;-83
2020/12/19 00:46:26;;;;;;;82.00;47.50;;;;;;;4.44;100.00;95285.16;4973880;28;20445;-84
2020/12/19 00:48:53;;;;;;;81.70;49.10;;;;;;;4.45;100.00;95294.47;4973565;28;20491;-83
2020/12/19 00:51:20;;;;;;;74.10;47.47;;;;;;;4.35;100.00;95293.47;4973607;28;20823;-83
2020/12/19 00:53:49;;;;;;;92.40;51.23;;;;;;;4.33;100.00;95285.94;4973851;28;20444;-83
2020/12/19 00:56:17;;;;;;;77.67;46.97;;;;;;;4.38;100.00;95279.69;4973695;28;20544;-83
2020/12/19 00:58:44;;;;;;;76.20;51.70;;;;;;;4.26;100.00;95281.41;4973597;28;20469;-83
2020/12/19 01:01:11;;;;;;;84.67;49.43;;;;;;;4.31;100.00;95277.59;4973741;28;20437;-83
2020/12/19 01:03:43;;;;;;;75.30;50.10;;;;;;;4.46;100.00;95269.75;4973975;28;20418;-84
2020/12/19 01:06:14;;;;;;;96.73;54.70;;;;;;;4.29;100.00;95279.44;4974382;28;20492;-83
2020/12/19 01:08:41;;;;;;;93.23;52.80;;;;;;;4.28;100.00;95274.47;4973255;28;20991;-83
2020/12/19 01:11:12;;;;;;;103.37;53.23;;;;;;;4.27;100.00;95268.56;4973311;28;20527;-83
2020/12/19 01:13:45;;;;;;;99.33;50.17;;;;;;;4.30;100.00;95263.22;4973557;28;20441;-84
2020/12/19 01:16:15;;;;;;;82.13;51.53;;;;;;;4.17;100.00;95268.41;4973615;28;20499;-82
2020/12/19 01:18:42;;;;;;;67.57;46.40;;;;;;;4.14;100.00;95263.53;4973379;28;20476;-83
2020/12/19 01:21:12;;;;;;;63.70;44.57;;;;;;;4.18;100.00;95261.56;4956184;28;20445;-83
2020/12/19 01:23:39;;;;;;;61.57;42.80;;;;;;;4.20;100.00;95259.72;4973663;28;20429;-83
2020/12/19 01:26:05;;;;;;;64.70;41.90;;;;;;;4.16;100.00;95256.59;4973455;28;20971;-83
2020/12/19 01:28:32;;;;;;;59.53;42.20;;;;;;;4.21;100.00;95256.25;4973165;28;20445;-83
2020/12/19 01:31:07;;;;;;;69.17;41.10;;;;;;;4.29;100.00;95255.69;4973148;28;20449;-83
2020/12/19 01:33:34;;;;;;;67.10;46.87;;;;;;;4.11;100.00;95256.09;4973092;28;20439;-83
2020/12/19 01:36:02;;;;;;;61.53;42.40;;;;;;;4.00;100.00;95229.66;4973629;28;20459;-83
2020/12/19 01:38:28;;;;;;;70.63;44.57;;;;;;;4.17;100.00;95253.09;4972942;28;20481;-83
2020/12/19 01:40:57;;;;;;;73.13;46.77;;;;;;;4.11;100.00;95259.47;4973283;28;20459;-83
2020/12/19 01:43:47;;;;;;;65.00;43.10;;;;;;;4.04;100.00;95262.56;4973232;28;21003;-83
2020/12/19 01:46:26;;;;;;;59.43;41.23;;;;;;;3.97;100.00;95268.09;4972881;28;20437;-83
2020/12/19 01:48:52;;;;;;;63.37;41.77;;;;;;;4.14;100.00;95263.53;4976743;28;20951;-83
2020/12/19 01:51:19;;;;;;;59.10;42.97;;;;;;;3.97;100.00;95274.94;4977278;28;20533;-84
2020/12/19 01:53:46;;;;;;;70.17;45.00;;;;;;;3.71;100.00;95273.31;4976908;28;20455;-83
2020/12/19 01:56:17;;;;;;;56.40;44.03;;;;;;;2.77;100.00;95223.66;4977054;28;20437;-84
2020/12/19 01:58:44;;;;;;;70.40;44.33;;;;;;;3.71;100.00;95268.22;4977195;28;20468;-83
2020/12/19 02:01:15;;;;;;;83.93;46.53;;;;;;;3.85;100.00;95256.25;4976604;28;20445;-83
2020/12/19 02:03:41;;;;;;;72.60;45.47;;;;;;;3.91;100.00;95249.88;4976609;28;20429;-83
2020/12/19 02:06:08;;;;;;;68.27;46.17;;;;;;;3.97;100.00;95241.78;4977624;28;20522;-85
2020/12/19 02:08:35;;;;;;;75.70;45.47;;;;;;;4.05;100.00;95236.16;4977086;28;20456;-83
2020/12/19 02:11:02;;;;;;;84.40;47.87;;;;;;;3.98;100.00;95238.34;4976381;28;20499;-84
2020/12/19 02:13:28;;;;;;;64.07;45.90;;;;;;;3.89;100.00;95250.81;4976721;28;20536;-83
2020/12/19 02:15:54;;;;;;;64.40;44.97;;;;;;;4.03;100.00;95233.72;4976400;28;20430;-81
2020/12/19 02:18:22;;;;;;;84.77;49.10;;;;;;;4.15;100.00;95233.72;4976618;28;20465;-82
2020/12/19 02:20:49;;;;;;;75.13;50.07;;;;;;;4.15;100.00;95229.44;4976612;28;20444;-82
2020/12/19 02:23:16;;;;;;;90.23;48.67;;;;;;;4.19;100.00;95232.59;4976580;28;20484;-83
2020/12/19 02:25:48;;;;;;;85.17;48.40;;;;;;;4.08;100.00;95212.97;4976256;28;20508;-82
2020/12/19 02:28:14;;;;;;;77.57;48.40;;;;;;;4.14;100.00;95219.38;4976468;28;20429;-82
2020/12/19 02:30:41;;;;;;;73.50;45.67;;;;;;;4.24;100.00;95233.88;4976073;28;20496;-83
2020/12/19 02:33:07;;;;;;;83.73;47.40;;;;;;;4.30;100.00;95237.72;4976044;28;20455;-82
2020/12/19 02:35:35;;;;;;;75.37;47.83;;;;;;;4.33;100.00;95244.31;4976395;28;20440;-82
2020/12/19 02:38:02;;;;;;;74.93;50.73;;;;;;;4.35;100.00;95242.47;4976259;28;20501;-82
2020/12/19 02:40:30;;;;;;;78.77;47.87;;;;;;;4.35;100.00;95248.41;4975901;28;20479;-82
2020/12/19 02:42:57;;;;;;;79.17;48.03;;;;;;;4.41;100.00;95248.88;4976291;28;20491;-83
2020/12/19 02:45:23;;;;;;;75.40;45.80;;;;;;;4.29;100.00;95250.56;4975869;28;20453;-82
2020/12/19 02:47:49;;;;;;;75.90;48.03;;;;;;;4.11;100.00;95256.09;4976090;28;20448;-83
2020/12/19 02:50:16;;;;;;;80.67;49.03;;;;;;;4.15;100.00;95249.84;4960557;28;20442;-82
2020/12/19 02:52:42;;;;;;;70.60;44.43;;;;;;;4.01;100.00;95255.94;4956865;29;20450;-82
2020/12/19 02:55:08;;;;;;;72.83;47.23;;;;;;;4.16;100.00;95256.59;4956553;29;20489;-82
2020/12/19 02:57:36;;;;;;;76.73;45.23;;;;;;;4.09;100.00;95263.88;4956194;28;20462;-84
2020/12/19 03:00:04;;;;;;;72.20;45.20;;;;;;;4.16;100.00;95235.38;4956203;29;20435;-83
2020/12/19 03:02:30;;;;;;;62.23;43.63;;;;;;;4.21;100.00;95259.59;4956339;29;20438;-82
2020/12/19 03:04:57;;;;;;;68.43;44.23;;;;;;;4.32;100.00;95258.81;4957139;28;20434;-82
2020/12/19 03:07:24;;;;;;;68.87;40.40;;;;;;;3.84;100.00;95263.06;4956192;29;20442;-82
2020/12/19 03:09:50;;;;;;;65.17;40.30;;;;;;;3.81;100.00;95230.16;4971095;28;20811;-82
2020/12/19 03:12:17;;;;;;;70.47;38.60;;;;;;;3.99;100.00;95279.00;4975461;28;20448;-82
2020/12/19 03:14:44;;;;;;;53.97;37.90;;;;;;;3.90;100.00;95249.06;4975179;28;20532;-82
2020/12/19 03:17:11;;;;;;;54.93;38.50;;;;;;;4.09;100.00;95261.31;4975269;28;20432;-82
2020/12/19 03:19:37;;;;;;;54.97;38.30;;;;;;;4.15;100.00;95256.69;4975222;28;20438;-82
2020/12/19 03:22:03;;;;;;;44.00;36.27;;;;;;;3.98;100.00;95262.09;4975725;28;20540;-82
2020/12/19 03:24:30;;;;;;;64.63;36.33;;;;;;;4.10;100.00;95251.94;4975527;28;20430;-83
2020/12/19 03:26:56;;;;;;;62.03;37.30;;;;;;;3.96;100.00;95271.59;4975427;28;20924;-82
2020/12/19 03:29:23;;;;;;;50.00;37.07;;;;;;;4.05;100.00;95254.81;4975389;28;20965;-82
2020/12/19 03:31:50;;;;;;;51.93;37.87;;;;;;;4.09;100.00;95255.41;4976038;28;20442;-83
2020/12/19 03:34:18;;;;;;;45.83;34.20;;;;;;;4.06;100.00;95253.06;4976565;28;20437;-82
2020/12/19 03:36:44;;;;;;;48.10;35.43;;;;;;;4.13;100.00;95256.78;4977951;28;20481;-82
2020/12/19 03:39:11;;;;;;;48.80;35.73;;;;;;;4.21;100.00;95254.50;4979544;28;20469;-82
2020/12/19 03:41:38;;;;;;;57.43;36.13;;;;;;;4.21;100.00;95253.69;4977219;28;20449;-81
2020/12/19 03:44:04;;;;;;;57.73;36.30;;;;;;;3.96;100.00;95224.88;4978459;28;20420;-82
2020/12/19 03:46:31;;;;;;;46.37;35.50;;;;;;;4.16;100.00;95241.28;4977995;28;20438;-82
2020/12/19 03:48:58;;;;;;;51.40;35.37;;;;;;;4.23;100.00;95250.09;4978746;28;20445;-82
2020/12/19 03:51:25;;;;;;;45.03;35.03;;;;;;;4.26;100.00;95240.63;4977449;28;20457;-82
2020/12/19 03:53:54;;;;;;;45.67;35.20;;;;;;;4.22;100.00;95252.75;4974962;28;20832;-83
2020/12/19 03:56:20;;;;;;;49.67;36.07;;;;;;;4.33;100.00;95252.78;4974635;28;20440;-83
2020/12/19 03:58:47;;;;;;;57.30;34.73;;;;;;;4.33;100.00;95254.53;4974797;28;20468;-81
2020/12/19 04:01:13;;;;;;;45.73;34.67;;;;;;;4.33;100.00;95260.44;4974448;28;20437;-83
2020/12/19 04:03:40;;;;;;;61.97;34.63;;;;;;;4.31;100.00;95246.19;4973949;28;20456;-82
2020/12/19 04:06:07;;;;;;;52.60;33.70;;;;;;;4.31;100.00;95264.03;4975151;28;20483;-82
2020/12/19 04:08:33;;;;;;;44.40;34.87;;;;;;;4.40;100.00;95263.34;4974334;28;20958;-82
2020/12/19 04:11:00;;;;;;;48.27;32.97;;;;;;;4.33;100.00;95274.94;4974201;28;20483;-81
2020/12/19 04:13:26;;;;;;;55.70;35.53;;;;;;;4.39;100.00;95271.13;4975083;28;20822;-82
2020/12/19 04:15:53;;;;;;;54.80;34.90;;;;;;;4.04;100.00;95281.22;4974360;28;20936;-81
2020/12/19 04:18:19;;;;;;;50.57;36.20;;;;;;;3.89;100.00;95278.03;4974139;28;20473;-82
2020/12/19 04:20:45;;;;;;;50.60;34.87;;;;;;;3.87;100.00;95279.88;4975214;28;20442;-82
2020/12/19 04:23:13;;;;;;;50.30;34.80;;;;;;;4.14;100.00;95262.72;4974382;28;20886;-82
2020/12/19 04:25:39;;;;;;;53.37;39.40;;;;;;;4.21;100.00;95254.50;4974251;28;20441;-82
2020/12/19 04:28:06;;;;;;;44.63;34.70;;;;;;;4.19;100.00;95255.56;4973992;28;20445;-81
2020/12/19 04:30:32;;;;;;;52.63;36.47;;;;;;;4.14;100.00;95266.09;4974028;28;20437;-82
2020/12/19 04:32:58;;;;;;;47.03;35.07;;;;;;;4.01;100.00;95266.13;4974220;28;20437;-82
2020/12/19 04:35:25;;;;;;;55.13;35.73;;;;;;;4.07;100.00;95239.41;4973816;28;20484;-81
2020/12/19 04:37:51;;;;;;;50.03;34.73;;;;;;;3.87;100.00;95195.78;4973572;28;20523;-81
2020/12/19 04:40:18;;;;;;;44.00;35.23;;;;;;;4.29;100.00;95253.13;4974049;28;20434;-82
2020/12/19 04:42:45;;;;;;;41.73;32.50;;;;;;;4.14;100.00;95235.50;4974046;28;20532;-82
2020/12/19 04:45:11;;;;;;;46.03;34.00;;;;;;;4.21;100.00;95259.59;4973637;28;20426;-81
2020/12/19 04:47:38;;;;;;;48.27;35.03;;;;;;;4.23;100.00;95257.75;4973756;28;20437;-82
2020/12/19 04:50:05;;;;;;;51.13;34.43;;;;;;;4.20;100.00;95250.34;4974516;28;20455;-82
2020/12/19 04:52:32;;;;;;;42.47;34.10;;;;;;;4.18;100.00;95254.72;4973982;28;20504;-82
2020/12/19 04:54:58;;;;;;;55.20;37.83;;;;;;;4.19;100.00;95264.00;4973401;28;20449;-82
2020/12/19 04:57:25;;;;;;;48.43;34.27;;;;;;;4.28;100.00;95249.75;4973643;28;20485;-82
2020/12/19 04:59:52;;;;;;;46.20;34.80;;;;;;;4.31;100.00;95269.13;4973356;28;20437;-80
2020/12/19 05:02:27;;;;;;;46.70;33.70;;;;;;;4.17;100.00;95272.66;4973354;28;20441;-81
2020/12/19 05:04:53;;;;;;;51.30;37.63;;;;;;;4.09;100.00;95286.00;4973402;28;20948;-81
2020/12/19 05:07:20;;;;;;;58.97;34.37;;;;;;;4.03;100.00;95266.88;4974086;28;20489;-83
2020/12/19 05:09:46;;;;;;;49.73;35.30;;;;;;;4.14;100.00;95294.13;4973147;28;20440;-81
2020/12/19 05:12:13;;;;;;;57.83;35.90;;;;;;;4.27;100.00;95281.31;4973580;28;20437;-82
2020/12/19 05:14:41;;;;;;;58.00;36.27;;;;;;;4.15;100.00;95257.50;4973570;28;20459;-82
2020/12/19 05:17:08;;;;;;;59.10;36.67;;;;;;;4.36;100.00;95287.47;4973275;28;20445;-82
2020/12/19 05:19:35;;;;;;;56.30;35.80;;;;;;;4.06;100.00;95296.38;4973238;28;20437;-82
2020/12/19 05:22:01;;;;;;;44.40;33.80;;;;;;;4.12;100.00;95295.97;4972269;28;20441;-82
2020/12/19 05:24:30;;;;;;;56.73;35.80;;;;;;;4.11;100.00;95294.34;4972728;28;20536;-83
2020/12/19 05:26:56;;;;;;;56.70;37.97;;;;;;;3.68;100.00;95220.03;4973124;28;20437;-82
2020/12/19 05:29:23;;;;;;;46.00;37.97;;;;;;;4.15;100.00;95300.03;4973024;28;20471;-83
2020/12/19 05:31:59;;;;;;;50.80;38.70;;;;;;;4.12;100.00;95299.31;4972798;28;20461;-82
2020/12/19 05:34:28;;;;;;;65.03;34.27;;;;;;;4.12;100.00;95299.31;4973388;28;20860;-83
2020/12/19 05:36:55;;;;;;;50.90;35.97;;;;;;;4.17;100.00;95301.53;4973121;28;20437;-82
2020/12/19 05:39:23;;;;;;;42.37;35.53;;;;;;;4.19;100.00;95297.13;4973200;28;20480;-82
2020/12/19 05:41:50;;;;;;;50.80;34.80;;;;;;;4.24;100.00;95289.97;4973481;28;20445;-83
2020/12/19 05:44:19;;;;;;;65.67;35.90;;;;;;;4.14;100.00;95286.47;4972961;28;20438;-82
2020/12/19 05:46:46;;;;;;;58.93;38.37;;;;;;;4.27;100.00;95306.81;4973917;28;20433;-85
2020/12/19 05:49:14;;;;;;;44.90;36.10;;;;;;;4.07;100.00;95260.63;4973498;28;20901;-82
2020/12/19 05:51:42;;;;;;;65.50;39.67;;;;;;;4.01;100.00;95304.38;4973090;28;20445;-83
2020/12/19 05:54:10;;;;;;;75.90;39.90;;;;;;;4.04;100.00;95308.44;4973022;28;20880;-83
2020/12/19 05:56:39;;;;;;;66.30;39.37;;;;;;;3.99;100.00;95311.31;4973204;28;20506;-84
2020/12/19 05:59:10;;;;;;;65.77;38.77;;;;;;;3.89;100.00;95275.50;4972628;28;20475;-82
2020/12/19 06:01:39;;;;;;;58.23;36.03;;;;;;;3.93;100.00;95312.56;4973217;28;20445;-84
2020/12/19 06:04:08;;;;;;;59.90;40.63;;;;;;;4.11;100.00;95314.72;4972670;28;20443;-84
2020/12/19 06:06:39;;;;;;;68.73;40.50;;;;;;;3.59;100.00;95303.00;4973288;28;21053;-84
2020/12/19 06:09:06;;;;;;;196.60;89.43;;;;;;;3.59;100.00;95318.28;4973799;28;20425;-86
2020/12/19 06:11:43;;;;;;;98.07;51.13;;;;;;;3.93;100.00;95297.28;4973307;28;20525;-86
2020/12/19 06:14:56;;;;;;;72.30;41.77;;;;;;;3.86;100.00;95296.09;4974047;28;20576;-91
2020/12/19 06:17:36;;;;;;;75.87;39.80;;;;;;;3.89;100.00;95293.31;4974674;28;20539;-93
2020/12/19 06:20:07;;;;;;;68.57;42.93;;;;;;;3.52;100.00;95248.31;4974870;28;20440;-93
2020/12/19 06:22:34;;;;;;;85.27;45.07;;;;;;;3.99;100.00;95279.00;4976199;28;20454;-93
2020/12/19 06:25:06;;;;;;;98.57;63.23;;;;;;;3.92;100.00;95287.19;4974204;28;20596;-95
2020/12/19 06:27:42;;;;;;;69.37;56.60;;;;;;;3.86;100.00;95289.25;4975514;28;20865;-96
2020/12/19 06:30:29;;;;;;;83.23;57.40;;;;;;;3.85;100.00;95274.09;4974558;28;20442;-95
2020/12/19 06:33:09;;;;;;;64.87;47.93;;;;;;;3.89;100.00;95295.88;4976529;28;20445;-95
2020/12/19 06:35:35;;;;;;;211.27;103.20;;;;;;;3.72;100.00;95308.06;4978936;28;20462;-82
2020/12/19 06:38:03;;;;;;;145.27;83.07;;;;;;;3.81;100.00;95305.81;4977844;28;20460;-74
2020/12/19 06:40:47;;;;;;;66.10;47.70;;;;;;;3.67;100.00;95297.38;4977405;28;20460;-90
2020/12/19 06:43:15;;;;;;;76.43;41.00;;;;;;;3.64;100.00;95285.69;4978472;28;20500;-88
2020/12/19 06:45:42;;;;;;;69.50;43.50;;;;;;;3.94;100.00;95287.91;4977239;28;20430;-87
2020/12/19 06:48:28;;;;;;;114.90;57.00;;;;;;;3.92;100.00;95294.84;4966405;28;20469;-79
2020/12/19 06:50:56;;;;;;;139.93;65.07;;;;;;;3.92;100.00;95285.44;4961703;29;20446;-89
2020/12/19 06:53:25;;;;;;;95.97;47.53;;;;;;;4.05;100.00;95272.66;4965084;29;20450;-94
2020/12/19 06:55:51;;;;;;;80.73;45.27;;;;;;;4.08;100.00;95290.25;4968789;29;20991;-94
2020/12/19 06:58:31;;;;;;;86.40;43.33;;;;;;;3.95;100.00;95284.41;4962053;29;20497;-95
2020/12/19 07:00:57;;;;;;;101.73;53.23;;;;;;;3.97;100.00;95292.75;4958148;29;20453;-84
2020/12/19 07:03:54;;;;;;;96.33;51.93;;;;;;;4.03;100.00;95312.75;4961861;29;20507;-95
2020/12/19 07:06:21;;;;;;;96.53;51.20;;;;;;;3.96;100.00;95325.09;4968960;28;20481;-94
2020/12/19 07:08:48;;;;;;;90.30;48.87;;;;;;;3.60;100.00;95312.28;4966235;29;20438;-96
2020/12/19 07:11:37;;;;;;;85.80;49.87;;;;;;;3.87;100.00;95308.72;4958345;29;20448;-78
2020/12/19 07:14:04;;;;;;;112.00;50.43;;;;;;;3.75;100.00;95268.81;4959574;29;20465;-94
2020/12/19 07:16:47;;;;;;;98.30;51.30;;;;;;;4.05;100.00;95307.53;4958148;29;20446;-94
2020/12/19 07:19:24;;;;;;;96.83;48.13;;;;;;;4.14;100.00;95299.22;4957282;29;20478;-92
2020/12/19 07:21:52;;;;;;;109.80;49.67;;;;;;;4.10;100.00;95287.63;4956426;29;20819;-89
2020/12/19 07:24:19;;;;;;;78.23;42.20;;;;;;;4.22;100.00;95308.88;4965848;28;20530;-89
2020/12/19 07:26:46;;;;;;;99.17;47.90;;;;;;;3.84;100.00;95267.34;4975454;28;20451;-89
2020/12/19 07:29:14;;;;;;;99.40;45.80;;;;;;;4.20;100.00;95333.66;4975119;28;20495;-89
2020/12/19 07:31:49;;;;;;;105.93;46.77;;;;;;;4.20;100.00;95333.66;4975358;28;20769;-89
2020/12/19 07:34:16;;;;;;;87.47;46.77;;;;;;;4.08;100.00;95325.97;4968076;28;20485;-89
2020/12/19 07:36:44;;;;;;;81.33;42.67;;;;;;;4.30;100.00;95334.63;4956482;29;20925;-89
2020/12/19 07:39:12;;;;;;;54.97;37.90;;;;;;;4.43;100.00;95329.47;4956040;29;20473;-89
2020/12/19 07:41:40;;;;;;;60.90;32.83;;;;;;;4.24;100.00;95346.06;4956659;29;20456;-89
2020/12/19 07:44:15;;;;;;;50.83;33.23;;;;;;;4.10;100.00;95344.50;4955820;28;20526;-88
2020/12/19 07:46:58;;;;;;;44.37;34.03;;;;;;;3.90;100.00;95340.81;4956723;28;20449;-91
2020/12/19 07:49:27;;;;;;;60.77;34.40;;;;;;;4.02;100.00;95336.59;4957010;29;20429;-89
2020/12/19 07:52:07;;;;;;;49.37;34.63;;;;;;;3.94;100.00;95326.97;4956547;29;20461;-89
2020/12/19 07:54:33;;;;;;;43.63;32.90;;;;;;;3.39;100.00;95287.38;4956065;29;20418;-89
2020/12/19 07:57:03;;;;;;;52.80;31.70;;;;;;;4.11;100.00;95327.47;4955796;29;20964;-89
2020/12/19 07:59:29;;;;;;;36.83;30.53;;;;;;;3.97;100.00;95319.06;4955884;29;20482;-89
2020/12/19 08:01:56;;;;;;;44.63;31.57;;;;;;;3.75;100.00;95345.25;4957034;29;20555;-89
2020/12/19 08:04:23;;;;;;;59.30;35.37;;;;;;;3.51;100.00;95278.09;4965296;28;20528;-91
2020/12/19 08:06:50;;;;;;;50.90;32.47;;;;;;;3.77;100.00;95340.84;4976981;28;20503;-85
2020/12/19 08:09:20;;;;;;;49.67;34.07;;;;;;;4.08;100.00;95330.22;4974998;28;20456;-88
2020/12/19 08:11:48;;;;;;;64.30;37.00;;;;;;;4.10;100.00;95319.00;4974467;28;20437;-90
2020/12/19 08:14:20;;;;;;;50.13;33.80;;;;;;;4.18;100.00;95326.13;4974089;28;20924;-80
2020/12/19 08:16:47;;;;;;;189.57;97.17;;;;;;;3.98;100.00;95330.09;4955448;28;20947;-75
2020/12/19 08:19:25;;;;;;;164.13;75.37;;;;;;;3.90;100.00;95338.25;4974574;28;21011;-90
2020/12/19 08:22:00;;;;;;;112.30;57.20;;;;;;;3.89;100.00;95306.06;4974419;28;20501;-87
2020/12/19 08:24:30;;;;;;;48.60;32.27;;;;;;;3.93;100.00;95317.66;4957179;29;20457;-91
2020/12/19 08:27:28;;;;;;;52.60;33.20;;;;;;;3.77;100.00;95326.38;4956737;29;20529;-91
2020/12/19 08:30:07;;;;;;;51.60;34.30;;;;;;;3.78;100.00;95322.94;4957572;29;20423;-89
2020/12/19 08:32:35;;;;;;;52.17;34.87;;;;;;;3.44;100.00;95327.81;4955479;29;20492;-91
2020/12/19 08:35:02;;;;;;;54.37;33.17;;;;;;;3.56;100.00;95308.34;4955941;29;20446;-90
2020/12/19 08:37:28;;;;;;;46.77;33.67;;;;;;;3.67;100.00;95299.94;4955978;29;20419;-91
2020/12/19 08:40:10;;;;;;;53.40;32.13;;;;;;;3.96;100.00;95304.72;4956948;28;20459;-92
2020/12/19 08:42:38;;;;;;;62.00;35.90;;;;;;;3.73;100.00;95303.78;4956683;29;20567;-91
2020/12/19 08:45:28;;;;;;;48.33;31.00;;;;;;;3.67;100.00;95308.38;4970208;28;20533;-93
2020/12/19 08:47:57;;;;;;;45.40;31.00;;;;;;;3.85;100.00;95284.28;4968971;28;20445;-91
2020/12/19 08:50:32;;;;;;;44.20;32.90;;;;;;;3.55;100.00;95261.66;4957017;28;20439;-91
2020/12/19 08:53:04;;;;;;;43.27;31.57;;;;;;;3.84;100.00;95298.75;4955250;28;20429;-91
2020/12/19 08:55:31;;;;;;;42.67;32.70;;;;;;;3.94;100.00;95285.34;4953932;28;20442;-90
2020/12/19 08:57:57;;;;;;;46.73;31.20;;;;;;;3.96;100.00;95317.47;4954268;29;20520;-90
2020/12/19 09:00:23;;;;;;;46.23;32.73;;;;;;;3.75;100.00;95273.91;4954718;29;20438;-94
2020/12/19 09:02:52;;;;;;;53.20;32.70;;;;;;;3.83;100.00;95276.72;4961422;28;20480;-91
2020/12/19 09:05:31;;;;;;;53.93;33.70;;;;;;;4.03;100.00;95263.50;4974924;28;20513;-93
2020/12/19 09:07:57;;;;;;;48.13;32.30;;;;;;;3.95;100.00;95269.94;4975005;28;20560;-92
2020/12/19 09:10:26;;;;;;;50.73;36.40;;;;;;;3.89;100.00;95275.50;4974687;28;20445;-93
2020/12/19 09:13:12;;;;;;;66.80;34.40;;;;;;;3.99;100.00;95261.16;4972534;28;20453;-93
2020/12/19 09:15:39;;;;;;;66.50;36.10;;;;;;;3.57;100.00;95241.16;4973491;28;20441;-86
2020/12/19 09:18:22;;;;;;;63.73;37.27;;;;;;;3.97;100.00;95257.09;4972577;28;20485;-84
2020/12/19 09:21:01;;;;;;;53.00;34.03;;;;;;;3.71;100.00;95255.50;4972583;28;21088;-82
2020/12/19 09:23:29;;;;;;;76.10;37.47;;;;;;;3.85;100.00;95249.38;4975599;28;20971;-95
2020/12/19 09:25:57;;;;;;;56.77;33.83;;;;;;;3.72;100.00;95187.53;4975897;28;20508;-94
2020/12/19 09:28:26;;;;;;;65.97;37.77;;;;;;;3.95;100.00;95223.25;4974084;28;21038;-92
2020/12/19 09:30:53;;;;;;;68.47;37.37;;;;;;;3.43;100.00;95186.09;4973675;28;20528;-86
2020/12/19 09:33:21;;;;;;;66.80;37.37;;;;;;;3.88;100.00;95243.25;4972719;28;20953;-83
2020/12/19 09:35:47;;;;;;;77.37;38.10;;;;;;;3.81;100.00;95237.00;4966997;28;20842;-85
2020/12/19 09:38:14;;;;;;;65.90;39.50;;;;;;;4.23;100.00;95232.25;4953777;29;20519;-82
2020/12/19 09:40:40;;;;;;;62.97;41.53;;;;;;;4.46;100.00;95221.28;4953256;29;20452;-85
2020/12/19 09:43:08;;;;;;;76.50;41.07;;;;;;;4.11;100.00;95236.53;4953584;29;20934;-87
2020/12/19 09:45:35;;;;;;;74.20;39.57;;;;;;;3.81;100.00;95227.59;4953802;29;20434;-88
2020/12/19 09:48:01;;;;;;;75.17;45.17;;;;;;;3.83;100.00;95219.88;4953234;29;20445;-84
2020/12/19 09:50:29;;;;;;;66.83;38.47;;;;;;;4.09;100.00;95219.72;4953318;29;20458;-85
2020/12/19 09:52:56;;;;;;;77.50;42.70;;;;;;;4.30;100.00;95239.47;4953341;29;20431;-81
2020/12/19 09:55:24;;;;;;;114.93;49.60;;;;;;;4.40;100.00;95237.84;4953425;29;20437;-88
2020/12/19 09:57:51;;;;;;;82.87;49.47;;;;;;;4.38;100.00;95210.84;4953260;29;20442;-79
2020/12/19 10:00:18;;;;;;;136.30;53.67;;;;;;;4.30;100.00;95237.72;4953445;29;20903;-74
2020/12/19 10:02:49;;;;;;;110.37;55.10;;;;;;;4.00;100.00;95219.47;4968811;28;20445;-84
2020/12/19 10:05:15;;;;;;;109.60;52.03;;;;;;;4.31;100.00;95234.25;4972649;28;20542;-80
2020/12/19 10:07:43;;;;;;;91.00;50.80;;;;;;;4.28;100.00;95242.09;4973567;28;20516;-83
2020/12/19 10:10:10;;;;;;;73.80;44.60;;;;;;;4.51;100.00;95237.06;4976603;28;20927;-78
2020/12/19 10:12:37;;;;;;;99.43;47.57;;;;;;;4.67;100.00;95231.63;4977120;28;20970;-87
2020/12/19 10:15:04;;;;;;;99.87;48.40;;;;;;;4.65;100.00;95228.38;4971959;28;20948;-79
2020/12/19 10:17:31;;;;;;;88.93;48.17;;;;;;;4.83;100.00;95232.22;4957067;29;20481;-85
2020/12/19 10:19:57;;;;;;;91.17;46.50;;;;;;;4.72;100.00;95215.16;4957040;29;20937;-83
2020/12/19 10:22:24;;;;;;;107.60;45.90;;;;;;;5.08;100.00;95226.06;4963644;28;20509;-78
2020/12/19 10:24:51;;;;;;;84.47;46.73;;;;;;;4.93;100.00;95223.72;4977804;28;20487;-78
2020/12/19 10:27:17;;;;;;;84.20;45.30;;;;;;;5.13;100.00;95239.25;4975963;28;20929;-77
2020/12/19 10:29:44;;;;;;;89.60;47.77;;;;;;;5.19;100.00;95232.06;4975578;28;20442;-85
2020/12/19 10:32:13;;;;;;;81.00;44.90;;;;;;;5.13;100.00;95241.03;4975303;28;20433;-81
2020/12/19 10:34:39;;;;;;;79.93;41.03;;;;;;;4.53;100.00;95181.63;4975759;28;20450;-83
2020/12/19 10:37:06;;;;;;;90.63;44.10;;;;;;;5.38;100.00;95250.16;4975436;28;20439;-85
2020/12/19 10:39:32;;;;;;;97.07;44.93;;;;;;;5.29;100.00;95253.41;4975195;28;20519;-79
2020/12/19 10:42:00;;;;;;;83.47;45.00;;;;;;;4.90;100.00;95213.78;4975264;28;20441;-80
2020/12/19 10:44:27;;;;;;;95.50;46.90;;;;;;;5.45;100.00;95252.22;4975734;28;20467;-80
2020/12/19 10:46:53;;;;;;;72.33;44.60;;;;;;;5.47;100.00;95256.28;4975325;28;20448;-87
2020/12/19 10:49:20;;;;;;;77.87;45.77;;;;;;;5.47;100.00;95268.22;4974419;28;20956;-81
2020/12/19 10:51:47;;;;;;;85.17;45.97;;;;;;;5.57;100.00;95268.34;4975267;28;20472;-81
2020/12/19 10:54:14;;;;;;;82.47;43.70;;;;;;;5.42;100.00;95255.81;4975058;28;20449;-85
2020/12/19 10:56:40;;;;;;;93.07;47.50;;;;;;;5.44;100.00;95283.81;4975909;28;20445;-81
2020/12/19 10:59:08;;;;;;;79.57;42.57;;;;;;;5.45;100.00;95250.47;4975017;28;20833;-85
2020/12/19 11:01:34;;;;;;;114.50;55.90;;;;;;;5.62;100.00;95286.69;4974882;28;20451;-78
2020/12/19 11:04:07;;;;;;;150.97;78.20;;;;;;;5.58;100.00;95286.09;4974442;28;20453;-78
2020/12/19 11:06:34;;;;;;;87.00;45.90;;;;;;;5.72;100.00;95281.66;4975111;28;20547;-82
2020/12/19 11:09:00;;;;;;;99.53;44.00;;;;;;;5.66;100.00;95285.53;4957683;28;20541;-79
2020/12/19 11:11:27;;;;;;;76.53;42.67;;;;;;;5.50;100.00;95261.16;4974900;28;20516;-82
2020/12/19 11:13:57;;;;;;;72.93;41.70;;;;;;;5.70;100.00;95280.97;4975065;28;20510;-81
2020/12/19 11:16:25;;;;;;;73.73;41.87;;;;;;;5.78;100.00;95285.50;4974926;28;20468;-81
2020/12/19 11:18:52;;;;;;;72.73;42.40;;;;;;;5.73;100.00;95266.19;4975022;28;21038;-84
2020/12/19 11:21:19;;;;;;;84.00;43.33;;;;;;;5.82;100.00;95292.78;4975237;28;20521;-81
2020/12/19 11:23:46;;;;;;;79.73;45.40;;;;;;;5.78;100.00;95268.38;4974886;28;20459;-80
2020/12/19 11:26:12;;;;;;;90.83;44.50;;;;;;;5.79;100.00;95295.59;4974612;28;20430;-87